Time;durP1;ratioP1;P1;durP2;ratioP2;P2;SDS_P1;SDS_P2;PMS_P1;PMS_P2;Temp;Humidity;BMP_temperature;BMP_pressure;BME280_temperature;BME280_humidity;BME280_pressure;Samples;Min_cycle;Max_cycle;Signal;HPM_P1;HPM_P2
2021/04/24 00:01:42;;;;;;;8.30;5.50;;;;;;;10.35;41.91;98700.72;8398265;28;20515;-67
2021/04/24 00:05:45;;;;;;;9.80;6.67;;;;;;;10.42;41.99;98708.34;8396982;28;20219;-67
2021/04/24 00:09:48;;;;;;;11.83;6.07;;;;;;;10.34;42.23;98700.81;8397550;28;20206;-67
2021/04/24 00:13:51;;;;;;;8.30;6.00;;;;;;;10.20;42.73;98692.59;8397581;28;20471;-67
2021/04/24 00:17:53;;;;;;;12.57;6.60;;;;;;;10.16;42.18;98703.03;8396443;28;20223;-67
2021/04/24 00:21:56;;;;;;;8.43;5.77;;;;;;;10.17;42.34;98690.94;8371354;28;20527;-67
2021/04/24 00:25:58;;;;;;;9.07;5.70;;;;;;;10.42;41.79;98690.22;8362568;28;20228;-67
2021/04/24 00:30:00;;;;;;;8.60;5.90;;;;;;;10.36;41.71;98689.50;8362734;28;20238;-67
2021/04/24 00:34:03;;;;;;;9.70;5.67;;;;;;;10.21;42.24;98686.53;8362329;28;20283;-67
2021/04/24 00:38:07;;;;;;;9.43;6.40;;;;;;;10.08;42.22;98680.88;8362309;28;20272;-67
2021/04/24 00:42:08;;;;;;;9.07;6.30;;;;;;;10.12;41.94;98678.13;8362108;28;20609;-67
2021/04/24 00:46:11;;;;;;;7.40;5.13;;;;;;;9.98;42.16;98672.56;8362574;28;20206;-67
2021/04/24 00:50:17;;;;;;;8.87;5.43;;;;;;;10.09;41.65;98679.97;8362540;28;20249;-67
2021/04/24 00:54:19;;;;;;;10.23;5.27;;;;;;;10.13;41.32;98671.25;8361897;28;20659;-67
2021/04/24 00:58:26;;;;;;;8.93;5.50;;;;;;;9.96;41.52;98667.41;8361759;28;20247;-67
2021/04/24 01:02:27;;;;;;;7.30;5.33;;;;;;;9.87;41.95;98669.44;8374303;28;20231;-67
2021/04/24 01:06:29;;;;;;;10.37;5.60;;;;;;;9.93;41.68;98679.59;8394946;28;20211;-67
2021/04/24 01:10:32;;;;;;;8.83;5.60;;;;;;;9.74;42.62;98669.78;8394464;28;20642;-67
2021/04/24 01:14:35;;;;;;;8.37;5.47;;;;;;;9.56;42.64;98680.69;8395252;28;20238;-67
2021/04/24 01:18:37;;;;;;;7.43;5.37;;;;;;;9.64;42.66;98677.88;8386794;28;20206;-67
2021/04/24 01:22:42;;;;;;;8.20;5.53;;;;;;;9.49;42.85;98674.00;8394885;28;20223;-67
2021/04/24 01:26:43;;;;;;;11.90;5.70;;;;;;;9.52;42.95;98673.91;8394721;28;20203;-67
2021/04/24 01:30:46;;;;;;;10.10;5.57;;;;;;;9.43;43.14;98672.44;8395149;28;20344;-67
2021/04/24 01:34:48;;;;;;;8.50;5.67;;;;;;;9.35;43.25;98670.06;8394361;28;20233;-67
2021/04/24 01:38:52;;;;;;;9.57;6.00;;;;;;;9.32;43.05;98670.16;8394410;28;20252;-67
2021/04/24 01:42:55;;;;;;;7.60;5.27;;;;;;;9.23;43.63;98667.81;8394724;28;20227;-67
2021/04/24 01:46:57;;;;;;;9.17;5.43;;;;;;;9.26;43.40;98667.75;8394483;28;20211;-67
2021/04/24 01:50:59;;;;;;;7.40;5.60;;;;;;;9.18;43.35;98656.78;8394402;28;20203;-67
2021/04/24 01:55:01;;;;;;;9.50;6.13;;;;;;;9.17;43.39;98657.66;8396225;28;20203;-67
2021/04/24 01:59:04;;;;;;;9.63;5.83;;;;;;;9.46;42.98;98659.44;8400588;28;20207;-67
2021/04/24 02:03:09;;;;;;;10.40;5.43;;;;;;;9.50;42.28;98653.28;8400571;28;20663;-67
2021/04/24 02:07:11;;;;;;;7.43;5.13;;;;;;;9.36;42.73;98653.66;8400287;28;20674;-67
2021/04/24 02:11:14;;;;;;;8.97;5.30;;;;;;;9.28;42.56;98653.03;8399901;28;20231;-67
2021/04/24 02:15:16;;;;;;;12.60;5.57;;;;;;;9.04;43.36;98648.53;8399585;28;20226;-67
2021/04/24 02:19:17;;;;;;;8.20;5.47;;;;;;;9.18;43.04;98641.28;8399605;28;20558;-67
2021/04/24 02:23:20;;;;;;;9.63;5.73;;;;;;;9.25;42.77;98642.78;8399529;28;20243;-67
2021/04/24 02:27:23;;;;;;;9.07;5.60;;;;;;;9.22;43.32;98642.03;8399774;28;20199;-67
2021/04/24 02:31:25;;;;;;;8.67;5.90;;;;;;;8.84;43.94;98631.84;8399719;28;20238;-67
2021/04/24 02:35:28;;;;;;;11.43;5.63;;;;;;;8.80;43.93;98628.50;8399687;28;20293;-67
2021/04/24 02:39:32;;;;;;;8.40;6.03;;;;;;;8.73;43.98;98626.13;8398956;28;20253;-67
2021/04/24 02:43:34;;;;;;;10.50;5.90;;;;;;;8.75;43.98;98621.75;8398834;28;20635;-67
2021/04/24 02:47:36;;;;;;;10.00;5.77;;;;;;;8.67;44.18;98615.97;8399212;28;20535;-67
2021/04/24 02:51:39;;;;;;;8.03;5.57;;;;;;;8.65;44.13;98625.47;8398528;28;20207;-67
2021/04/24 02:55:41;;;;;;;9.53;5.80;;;;;;;8.66;44.24;98617.66;8398546;28;20570;-67
2021/04/24 02:59:44;;;;;;;10.47;6.10;;;;;;;8.68;43.88;98620.22;8398192;28;20203;-67
2021/04/24 03:03:45;;;;;;;8.30;6.00;;;;;;;8.58;44.40;98612.72;8398285;28;20230;-67
2021/04/24 03:07:48;;;;;;;7.70;5.97;;;;;;;8.61;44.23;98622.97;8397024;28;20698;-67
2021/04/24 03:11:50;;;;;;;10.23;6.17;;;;;;;8.51;44.27;98616.34;8398345;28;20199;-67
2021/04/24 03:15:52;;;;;;;8.73;6.07;;;;;;;8.55;44.40;98620.56;8398007;28;20223;-67
2021/04/24 03:19:55;;;;;;;8.00;6.00;;;;;;;8.55;44.30;98614.56;8397899;28;20298;-67
2021/04/24 03:23:56;;;;;;;11.77;6.00;;;;;;;8.35;44.15;98617.59;8397610;28;20227;-67
2021/04/24 03:27:58;;;;;;;9.43;5.80;;;;;;;8.38;44.64;98623.53;8397621;28;20199;-67
2021/04/24 03:32:01;;;;;;;7.70;5.83;;;;;;;8.36;44.62;98627.03;8398182;28;20237;-67
2021/04/24 03:36:04;;;;;;;8.27;6.00;;;;;;;8.42;44.12;98626.91;8397682;28;20214;-67
2021/04/24 03:40:07;;;;;;;11.13;5.30;;;;;;;8.33;44.29;98627.94;8397241;28;20565;-67
2021/04/24 03:44:09;;;;;;;9.47;5.80;;;;;;;8.34;44.50;98626.19;8397053;28;20226;-67
2021/04/24 03:48:12;;;;;;;9.50;5.67;;;;;;;8.30;44.60;98628.03;8396811;28;20210;-67
2021/04/24 03:52:14;;;;;;;7.50;5.80;;;;;;;8.24;44.43;98630.75;8396634;28;20199;-67
2021/04/24 03:56:16;;;;;;;7.63;5.63;;;;;;;8.14;44.43;98634.44;8396466;28;20218;-67
2021/04/24 04:00:19;;;;;;;8.47;5.53;;;;;;;8.15;44.35;98626.66;8396771;28;20199;-67
2021/04/24 04:04:22;;;;;;;12.23;6.97;;;;;;;8.12;44.57;98636.22;8396243;28;20329;-67
2021/04/24 04:08:24;;;;;;;9.17;5.67;;;;;;;8.00;45.08;98634.78;8396342;28;20195;-67
2021/04/24 04:12:27;;;;;;;12.40;5.87;;;;;;;7.93;45.19;98636.63;8395947;28;20195;-67
2021/04/24 04:16:29;;;;;;;9.10;5.53;;;;;;;7.80;45.47;98636.06;8396027;28;20219;-67
2021/04/24 04:20:32;;;;;;;7.10;5.00;;;;;;;7.93;45.26;98628.91;8396107;28;20207;-67
2021/04/24 04:24:34;;;;;;;10.27;5.80;;;;;;;7.90;45.58;98625.53;8395882;28;20226;-67
2021/04/24 04:28:35;;;;;;;7.47;5.83;;;;;;;8.01;45.51;98619.28;8395930;28;20195;-67
2021/04/24 04:32:37;;;;;;;10.87;5.80;;;;;;;7.93;45.79;98633.22;8395685;28;20246;-67
2021/04/24 04:36:40;;;;;;;8.70;5.93;;;;;;;8.00;45.76;98633.03;8395598;28;20215;-67
2021/04/24 04:40:43;;;;;;;9.57;5.60;;;;;;;7.95;45.69;98642.59;8396109;28;20203;-67
2021/04/24 04:44:45;;;;;;;9.50;5.77;;;;;;;8.03;45.54;98653.63;8395295;28;20694;-67
2021/04/24 04:48:46;;;;;;;8.00;5.83;;;;;;;7.91;45.81;98642.72;8395430;28;20199;-67
2021/04/24 04:52:49;;;;;;;6.80;5.50;;;;;;;8.12;45.47;98644.78;8395456;28;20293;-67
2021/04/24 04:56:51;;;;;;;8.97;5.33;;;;;;;8.27;45.69;98655.66;8395666;28;20531;-67
2021/04/24 05:00:53;;;;;;;8.10;5.73;;;;;;;8.25;45.54;98647.94;8395168;28;20561;-67
2021/04/24 05:04:55;;;;;;;9.07;5.60;;;;;;;8.21;46.07;98654.06;8396663;28;20226;-67
2021/04/24 05:08:58;;;;;;;12.30;5.53;;;;;;;8.40;44.94;98650.16;8393960;28;20568;-67
2021/04/24 05:12:59;;;;;;;9.03;5.77;;;;;;;8.47;45.09;98650.00;8397036;28;20641;-67
2021/04/24 05:17:06;;;;;;;12.93;5.30;;;;;;;8.41;45.47;98650.97;8395613;28;20353;-67
2021/04/24 05:21:08;;;;;;;8.47;6.00;;;;;;;8.57;44.73;98643.75;8396120;28;20207;-67
2021/04/24 05:25:12;;;;;;;8.83;6.00;;;;;;;8.72;44.92;98647.66;8394969;28;20269;-67
2021/04/24 05:29:14;;;;;;;8.57;6.23;;;;;;;8.76;45.17;98650.13;8395949;28;20207;-66
2021/04/24 05:33:16;;;;;;;10.50;6.20;;;;;;;8.92;45.19;98653.16;8403458;28;20191;-67
2021/04/24 05:37:18;;;;;;;12.00;5.90;;;;;;;9.10;45.14;98651.81;8402685;28;20225;-67
2021/04/24 05:41:22;;;;;;;10.70;5.87;;;;;;;9.09;45.14;98657.03;8402967;28;20203;-67
2021/04/24 05:45:23;;;;;;;8.87;5.90;;;;;;;9.38;44.77;98662.22;8401562;28;20238;-67
2021/04/24 05:49:25;;;;;;;15.50;6.70;;;;;;;9.54;44.30;98657.47;8401290;28;20210;-67
2021/04/24 05:53:27;;;;;;;11.97;6.80;;;;;;;9.72;44.52;98658.66;8401450;28;20693;-67
2021/04/24 05:57:30;;;;;;;14.77;6.77;;;;;;;9.37;44.77;98660.53;8402998;28;20317;-67
2021/04/24 06:01:32;;;;;;;12.50;6.20;;;;;;;9.12;44.55;98652.63;8401256;28;20206;-67
2021/04/24 06:05:34;;;;;;;15.17;6.30;;;;;;;9.11;44.38;98657.81;8401516;28;20230;-67
2021/04/24 06:09:41;;;;;;;12.73;6.40;;;;;;;10.15;43.66;98659.09;8401213;28;20286;-67
2021/04/24 06:13:44;;;;;;;12.73;6.77;;;;;;;10.59;43.01;98666.34;8401084;28;20564;-67
2021/04/24 06:17:47;;;;;;;12.87;5.83;;;;;;;11.04;42.17;98658.75;8401274;28;20262;-67
2021/04/24 06:21:49;;;;;;;12.00;6.67;;;;;;;11.22;42.08;98664.19;8401283;28;20506;-67
2021/04/24 06:25:51;;;;;;;12.13;6.13;;;;;;;11.72;41.37;98661.47;8400325;28;20259;-67
2021/04/24 06:29:55;;;;;;;17.13;6.23;;;;;;;11.49;42.11;98662.31;8397606;28;20264;-67
2021/04/24 06:33:56;;;;;;;14.93;6.23;;;;;;;11.54;41.84;98657.81;8399317;28;20293;-67
2021/04/24 06:37:58;;;;;;;10.83;6.20;;;;;;;11.89;41.00;98672.06;8398927;28;20681;-67
2021/04/24 06:42:01;;;;;;;11.40;6.30;;;;;;;11.78;40.10;98657.78;8399057;28;20210;-67
2021/04/24 06:46:03;;;;;;;12.13;6.13;;;;;;;12.26;39.43;98657.66;8398874;28;20233;-67
2021/04/24 06:50:07;;;;;;;10.53;5.80;;;;;;;12.72;38.30;98665.31;8398754;28;20199;-67
2021/04/24 06:54:09;;;;;;;11.33;5.90;;;;;;;13.06;38.37;98667.31;8399158;28;20222;-67
2021/04/24 06:58:11;;;;;;;9.30;6.30;;;;;;;13.32;36.92;98665.34;8399176;28;20207;-67
2021/04/24 07:02:15;;;;;;;10.70;7.00;;;;;;;13.08;37.68;98660.31;8399654;28;20239;-67
2021/04/24 07:06:17;;;;;;;9.70;5.87;;;;;;;13.99;36.81;98665.78;8398993;28;20241;-67
2021/04/24 07:10:19;;;;;;;10.57;6.20;;;;;;;14.22;35.39;98664.69;8399455;28;20194;-67
2021/04/24 07:14:21;;;;;;;12.00;6.07;;;;;;;14.52;35.53;98662.34;8399481;28;20647;-67
2021/04/24 07:18:24;;;;;;;9.47;5.60;;;;;;;14.77;35.12;98658.56;8400501;28;20195;-68
2021/04/24 07:22:26;;;;;;;8.83;5.60;;;;;;;14.91;34.92;98660.47;8398803;28;20195;-67
2021/04/24 07:26:28;;;;;;;11.30;5.33;;;;;;;15.43;34.30;98662.97;8398777;28;20223;-67
2021/04/24 07:30:31;;;;;;;10.40;5.37;;;;;;;15.63;33.33;98649.72;8399188;28;20571;-67
2021/04/24 07:34:34;;;;;;;8.90;4.87;;;;;;;15.65;33.21;98652.25;8398662;28;20199;-67
2021/04/24 07:38:36;;;;;;;9.40;5.30;;;;;;;16.13;32.51;98650.50;8399110;28;20199;-67
2021/04/24 07:42:38;;;;;;;7.90;3.63;;;;;;;16.33;41.83;98651.97;8398303;28;20547;-65
2021/04/24 07:46:40;;;;;;;5.73;3.60;;;;;;;17.50;36.54;98652.09;8399770;28;20226;-65
2021/04/24 07:50:42;;;;;;;9.13;3.97;;;;;;;18.14;35.45;98657.69;8399738;28;20277;-64
2021/04/24 07:54:44;;;;;;;11.43;4.10;;;;;;;18.45;33.78;98653.06;8398999;28;20203;-64
2021/04/24 07:58:46;;;;;;;5.10;3.37;;;;;;;18.62;33.34;98659.81;8399482;28;20203;-64
2021/04/24 08:02:49;;;;;;;8.70;3.90;;;;;;;18.45;30.95;98646.06;8396722;28;20677;-64
2021/04/24 08:06:51;;;;;;;6.47;3.60;;;;;;;19.11;30.88;98653.94;8397315;28;20223;-65
2021/04/24 08:10:53;;;;;;;8.87;4.03;;;;;;;19.30;30.60;98650.88;8398917;28;20199;-64
2021/04/24 08:14:55;;;;;;;7.30;3.50;;;;;;;19.67;29.81;98645.69;8397839;28;20218;-64
2021/04/24 08:18:57;;;;;;;6.13;3.70;;;;;;;19.81;30.33;98648.19;8398116;28;20199;-65
2021/04/24 08:23:00;;;;;;;8.13;3.97;;;;;;;19.84;30.22;98650.63;8396846;28;20554;-63
2021/04/24 08:27:02;;;;;;;11.90;4.17;;;;;;;20.04;30.08;98633.38;8397965;28;20534;-63
2021/04/24 08:31:04;;;;;;;7.27;4.07;;;;;;;20.03;28.78;98634.34;8398292;28;20288;-63
2021/04/24 08:35:08;;;;;;;9.93;4.30;;;;;;;19.95;29.07;98633.22;8398293;28;20203;-64
2021/04/24 08:39:12;;;;;;;5.93;3.90;;;;;;;20.48;28.71;98628.44;8397459;28;20591;-64
2021/04/24 08:43:14;;;;;;;11.40;4.17;;;;;;;20.69;28.46;98633.91;8398559;28;20206;-64
2021/04/24 08:47:16;;;;;;;6.57;3.53;;;;;;;20.43;27.38;98631.41;8396953;28;20214;-64
2021/04/24 08:51:19;;;;;;;7.33;4.43;;;;;;;20.67;26.08;98623.50;8395671;28;20290;-65
2021/04/24 08:55:24;;;;;;;11.50;3.70;;;;;;;20.78;26.77;98627.97;8397150;28;20204;-65
2021/04/24 08:59:26;;;;;;;9.73;4.20;;;;;;;20.92;26.88;98626.06;8397392;28;20192;-65
2021/04/24 09:03:28;;;;;;;6.70;3.43;;;;;;;21.46;25.76;98623.63;8396771;28;20207;-64
2021/04/24 09:07:30;;;;;;;10.53;4.33;;;;;;;21.51;25.19;98620.59;8396568;28;20294;-64
2021/04/24 09:11:40;;;;;;;9.67;4.00;;;;;;;21.24;24.67;98620.94;8396622;28;20196;-65
2021/04/24 09:15:42;;;;;;;6.57;3.50;;;;;;;21.64;24.40;98610.75;8395775;28;20219;-65
2021/04/24 09:19:44;;;;;;;8.47;3.67;;;;;;;21.76;24.40;98616.88;8396101;28;20204;-65
2021/04/24 09:23:46;;;;;;;8.20;3.90;;;;;;;21.74;24.14;98612.66;8396728;28;20223;-65
2021/04/24 09:27:49;;;;;;;9.50;4.17;;;;;;;21.89;23.71;98613.25;8396319;28;20287;-64
2021/04/24 09:31:51;;;;;;;8.77;4.47;;;;;;;22.07;22.93;98603.84;8396138;28;20234;-64
2021/04/24 09:35:55;;;;;;;10.50;4.43;;;;;;;21.48;23.24;98607.69;8395937;28;20203;-65
2021/04/24 09:39:56;;;;;;;12.30;3.90;;;;;;;22.00;23.46;98607.94;8395728;28;20205;-65
2021/04/24 09:44:03;;;;;;;13.60;4.10;;;;;;;21.97;22.95;98600.25;8396172;28;20229;-65
2021/04/24 09:48:05;;;;;;;8.70;4.63;;;;;;;22.30;23.06;98595.88;8396601;28;20519;-65
2021/04/24 09:52:11;;;;;;;11.70;5.27;;;;;;;22.13;22.50;98589.31;8395668;28;20282;-65
2021/04/24 09:56:14;;;;;;;9.70;4.27;;;;;;;22.49;23.44;98585.47;8396315;28;20603;-65
2021/04/24 10:00:16;;;;;;;14.60;4.97;;;;;;;22.17;22.43;98583.66;8395400;28;20200;-65
2021/04/24 10:04:18;;;;;;;7.77;4.03;;;;;;;22.33;23.59;98577.13;8395146;28;20239;-65
2021/04/24 10:08:20;;;;;;;9.47;5.63;;;;;;;22.03;22.10;98568.16;8395756;28;20201;-65
2021/04/24 10:12:22;;;;;;;7.30;4.23;;;;;;;22.71;21.77;98570.44;8394572;28;20207;-65
2021/04/24 10:16:39;;;;;;;7.30;4.00;;;;;;;23.03;22.26;98570.38;8397678;28;20216;-65
2021/04/24 10:20:43;;;;;;;7.43;4.37;;;;;;;23.10;21.28;98568.03;8401900;28;20610;-65
2021/04/24 10:24:45;;;;;;;8.07;4.27;;;;;;;23.34;20.48;98565.03;8400775;28;20223;-65
2021/04/24 10:28:48;;;;;;;8.17;5.00;;;;;;;23.30;21.64;98558.38;8399807;28;20209;-65
2021/04/24 10:32:51;;;;;;;8.70;4.10;;;;;;;23.47;20.44;98560.34;8401840;28;20239;-65
2021/04/24 10:36:53;;;;;;;9.23;4.10;;;;;;;23.62;20.62;98556.34;8400712;28;20206;-65
2021/04/24 10:40:55;;;;;;;6.10;3.90;;;;;;;23.92;19.92;98557.25;8399864;28;20210;-65
2021/04/24 10:44:58;;;;;;;5.80;3.57;;;;;;;23.78;21.06;98552.38;8399704;28;20502;-65
2021/04/24 10:49:21;;;;;;;8.27;4.67;;;;;;;23.79;20.94;98544.31;8401497;28;20210;-65
2021/04/24 10:53:24;;;;;;;15.93;9.90;;;;;;;23.84;19.61;98540.41;8400350;28;20214;-65
2021/04/24 10:57:41;;;;;;;9.47;5.47;;;;;;;22.83;21.11;98541.19;8399518;28;20199;-65
2021/04/24 11:02:05;;;;;;;11.17;4.87;;;;;;;22.47;21.80;98539.06;8397383;28;20206;-65
2021/04/24 11:06:10;;;;;;;8.33;4.83;;;;;;;23.49;20.61;98536.44;8401720;28;20617;-65
2021/04/24 11:10:26;;;;;;;15.57;5.13;;;;;;;23.45;20.19;98532.41;8399907;28;20229;-64
2021/04/24 11:14:31;;;;;;;13.70;3.97;;;;;;;23.46;20.22;98526.16;8399152;28;20218;-65
2021/04/24 11:18:34;;;;;;;8.97;4.47;;;;;;;23.72;20.18;98529.09;8399601;28;20225;-65
2021/04/24 11:22:38;;;;;;;9.67;4.33;;;;;;;23.95;19.25;98527.91;8400298;28;20583;-65
2021/04/24 11:26:50;;;;;;;6.37;4.00;;;;;;;24.01;18.31;98518.56;8398078;28;20297;-65
2021/04/24 11:30:54;;;;;;;7.63;4.10;;;;;;;24.06;19.09;98508.38;8399803;28;20317;-64
2021/04/24 11:35:11;;;;;;;10.50;4.37;;;;;;;23.88;18.71;98505.63;8399206;28;20210;-65
2021/04/24 11:39:14;;;;;;;7.17;4.20;;;;;;;23.97;18.20;98498.66;8399837;28;20526;-66
2021/04/24 11:43:28;;;;;;;5.13;3.87;;;;;;;24.02;17.85;98495.59;8399142;28;20204;-65
2021/04/24 11:47:45;;;;;;;9.93;4.73;;;;;;;22.94;18.30;98490.09;8399314;28;20552;-65
2021/04/24 11:51:49;;;;;;;9.03;5.00;;;;;;;23.09;18.65;98481.81;8398603;28;20496;-64
2021/04/24 11:55:53;;;;;;;9.37;4.20;;;;;;;23.37;20.47;98498.72;8397999;28;20214;-65
2021/04/24 11:59:55;;;;;;;8.80;4.03;;;;;;;23.67;19.62;98486.38;8397838;28;20210;-65
2021/04/24 12:03:57;;;;;;;7.93;5.07;;;;;;;22.51;19.08;98485.88;8398058;28;20225;-65
2021/04/24 12:07:59;;;;;;;10.53;4.70;;;;;;;23.40;18.50;98472.88;8398002;28;20198;-65
2021/04/24 12:12:02;;;;;;;10.80;4.70;;;;;;;23.76;19.45;98469.66;8397757;28;20224;-64
2021/04/24 12:16:04;;;;;;;12.77;4.20;;;;;;;23.78;19.41;98467.75;8396986;28;20233;-65
2021/04/24 12:20:07;;;;;;;6.70;3.77;;;;;;;23.61;18.66;98464.81;8398232;28;20203;-65
2021/04/24 12:24:09;;;;;;;17.27;4.67;;;;;;;23.36;19.66;98462.69;8396795;28;20250;-64
2021/04/24 12:28:12;;;;;;;12.07;4.57;;;;;;;23.56;19.54;98451.16;8395315;28;20306;-65
2021/04/24 12:32:18;;;;;;;9.47;5.10;;;;;;;24.07;19.61;98451.88;8397775;28;20662;-65
2021/04/24 12:36:20;;;;;;;10.63;4.13;;;;;;;24.06;19.19;98444.06;8397887;28;20214;-65
2021/04/24 12:40:22;;;;;;;11.57;4.57;;;;;;;24.25;18.70;98443.19;8397869;28;20613;-65
2021/04/24 12:44:28;;;;;;;9.90;4.83;;;;;;;23.89;19.14;98437.69;8396700;28;20229;-65
2021/04/24 12:48:34;;;;;;;11.30;5.10;;;;;;;23.99;18.42;98434.06;8398504;28;20603;-65
2021/04/24 12:52:50;;;;;;;9.97;5.20;;;;;;;23.90;18.07;98415.56;8394238;28;20647;-68
2021/04/24 12:56:52;;;;;;;12.50;6.30;;;;;;;23.97;18.88;98408.72;8397244;28;20198;-68
2021/04/24 13:00:54;;;;;;;10.63;5.40;;;;;;;23.96;19.47;98413.19;8393564;28;20610;-68
2021/04/24 13:04:57;;;;;;;11.33;4.67;;;;;;;23.95;19.01;98410.66;8396488;28;20226;-68
2021/04/24 13:08:59;;;;;;;8.97;4.53;;;;;;;23.84;19.16;98406.38;8396316;28;20210;-68
2021/04/24 13:13:01;;;;;;;10.60;5.30;;;;;;;23.66;19.53;98400.09;8396475;28;20202;-68
2021/04/24 13:17:10;;;;;;;11.93;5.93;;;;;;;23.45;18.96;98392.31;8395670;28;20226;-67
2021/04/24 13:21:27;;;;;;;10.27;4.87;;;;;;;23.52;19.67;98390.81;8396889;28;20187;-68
2021/04/24 13:25:31;;;;;;;9.77;5.67;;;;;;;23.51;20.46;98382.03;8395724;28;20208;-67
2021/04/24 13:29:35;;;;;;;18.20;4.93;;;;;;;24.02;19.57;98381.84;8395425;28;20242;-68
2021/04/24 13:33:37;;;;;;;8.00;4.93;;;;;;;24.28;19.23;98380.22;8395414;28;20293;-67
2021/04/24 13:37:39;;;;;;;10.77;6.03;;;;;;;24.05;19.87;98368.34;8395027;28;20203;-69
2021/04/24 13:41:41;;;;;;;14.27;5.13;;;;;;;24.00;19.67;98366.13;8395582;28;20543;-69
2021/04/24 13:45:43;;;;;;;10.37;5.47;;;;;;;23.81;19.92;98373.13;8395488;28;20230;-69
2021/04/24 13:49:46;;;;;;;10.50;4.57;;;;;;;23.59;20.44;98357.56;8395752;28;20229;-66
2021/04/24 13:53:48;;;;;;;12.17;5.00;;;;;;;23.74;19.82;98361.44;8402264;28;20207;-66
2021/04/24 13:58:01;;;;;;;18.83;6.33;;;;;;;23.27;20.07;98353.38;8402197;28;20243;-66
2021/04/24 14:02:05;;;;;;;11.50;5.17;;;;;;;23.20;20.63;98344.34;8401989;28;20573;-65
2021/04/24 14:06:08;;;;;;;8.10;4.83;;;;;;;23.56;20.37;98348.06;8401423;28;20300;-68
2021/04/24 14:10:12;;;;;;;20.60;6.23;;;;;;;23.48;19.76;98340.03;8402494;28;20205;-68
2021/04/24 14:14:14;;;;;;;9.57;5.00;;;;;;;23.67;19.70;98330.41;8401392;28;20203;-67
2021/04/24 14:18:16;;;;;;;8.30;4.23;;;;;;;23.75;19.33;98331.34;8401221;28;20626;-68
2021/04/24 14:22:18;;;;;;;8.87;4.43;;;;;;;23.50;18.73;98330.16;8401156;28;20258;-68
2021/04/24 14:26:20;;;;;;;7.20;3.73;;;;;;;23.53;19.00;98329.03;8402246;28;20231;-68
2021/04/24 14:30:23;;;;;;;12.97;4.90;;;;;;;23.34;19.05;98324.59;8398551;28;20231;-68
2021/04/24 14:34:24;;;;;;;9.90;6.33;;;;;;;23.16;18.52;98321.81;8399965;28;20657;-68
2021/04/24 14:38:27;;;;;;;7.47;4.20;;;;;;;22.24;18.26;98312.28;8400700;28;20658;-68
2021/04/24 14:42:29;;;;;;;8.67;4.87;;;;;;;22.37;19.11;98318.19;8400177;28;20210;-68
2021/04/24 14:46:31;;;;;;;16.47;10.60;;;;;;;22.91;19.32;98321.38;8400027;28;20242;-68
2021/04/24 14:50:36;;;;;;;5.67;3.63;;;;;;;23.08;19.25;98319.88;8400000;28;20205;-68
2021/04/24 14:54:39;;;;;;;7.07;3.43;;;;;;;22.81;18.39;98309.97;8399426;28;20634;-68
2021/04/24 14:58:40;;;;;;;11.20;3.40;;;;;;;22.79;18.56;98307.47;8399793;28;20651;-68
2021/04/24 15:02:44;;;;;;;10.20;3.27;;;;;;;22.68;18.55;98299.66;8399484;28;20609;-68
2021/04/24 15:06:46;;;;;;;8.10;3.50;;;;;;;22.58;17.92;98299.66;8399504;28;20237;-68
2021/04/24 15:10:49;;;;;;;9.00;4.00;;;;;;;22.44;18.25;98307.94;8399385;28;20209;-69
2021/04/24 15:14:53;;;;;;;7.57;3.50;;;;;;;21.81;18.35;98302.78;8399035;28;20311;-69
2021/04/24 15:18:55;;;;;;;6.60;3.10;;;;;;;21.82;18.79;98299.22;8399082;28;20712;-69
2021/04/24 15:22:57;;;;;;;8.53;3.53;;;;;;;21.52;18.54;98300.84;8398958;28;20227;-68
2021/04/24 15:27:00;;;;;;;6.03;3.27;;;;;;;21.64;18.84;98286.59;8399097;28;20227;-68
2021/04/24 15:31:02;;;;;;;5.87;2.93;;;;;;;21.76;18.76;98299.72;8398827;28;20231;-68
2021/04/24 15:35:05;;;;;;;4.93;2.80;;;;;;;21.73;18.34;98292.91;8398645;28;20665;-69
2021/04/24 15:39:08;;;;;;;6.80;3.33;;;;;;;21.58;18.84;98294.22;8398544;28;20208;-68
2021/04/24 15:43:11;;;;;;;5.50;3.20;;;;;;;21.36;18.64;98292.50;8398364;28;20204;-68
2021/04/24 15:47:13;;;;;;;6.90;4.17;;;;;;;21.45;19.14;98289.97;8398575;28;20227;-68
2021/04/24 15:51:15;;;;;;;6.80;3.37;;;;;;;21.42;18.25;98284.94;8398210;28;20195;-68
2021/04/24 15:55:19;;;;;;;8.17;3.63;;;;;;;21.37;18.96;98275.75;8398669;28;20204;-68
2021/04/24 15:59:21;;;;;;;8.93;4.87;;;;;;;21.32;19.69;98278.75;8398254;28;20253;-68
2021/04/24 16:03:23;;;;;;;9.33;5.23;;;;;;;21.35;19.82;98275.03;8397692;28;20207;-69
2021/04/24 16:07:25;;;;;;;5.93;3.27;;;;;;;21.26;19.83;98272.19;8397679;28;20297;-68
2021/04/24 16:11:27;;;;;;;10.67;3.50;;;;;;;21.09;20.06;98268.34;8397695;28;20205;-68
2021/04/24 16:15:30;;;;;;;9.23;3.67;;;;;;;21.06;19.67;98276.50;8397044;28;20225;-68
2021/04/24 16:19:32;;;;;;;7.00;3.60;;;;;;;21.03;20.21;98263.56;8398132;28;20197;-69
2021/04/24 16:23:33;;;;;;;10.47;5.60;;;;;;;20.62;22.33;98269.59;8397738;28;20199;-68
2021/04/24 16:27:36;;;;;;;15.20;7.80;;;;;;;20.59;22.63;98281.16;8396840;28;20233;-69
2021/04/24 16:31:39;;;;;;;10.83;6.03;;;;;;;20.56;23.17;98273.53;8397021;28;20328;-69
2021/04/24 16:35:41;;;;;;;10.83;6.00;;;;;;;20.38;23.10;98275.00;8396540;28;20257;-69
2021/04/24 16:39:43;;;;;;;8.80;5.30;;;;;;;20.31;23.30;98269.38;8397159;28;20202;-69
2021/04/24 16:43:45;;;;;;;10.80;4.70;;;;;;;20.25;23.37;98270.72;8396537;28;20211;-69
2021/04/24 16:47:50;;;;;;;11.97;4.27;;;;;;;20.24;23.63;98265.59;8396175;28;20233;-69
2021/04/24 16:51:52;;;;;;;9.23;4.57;;;;;;;20.13;24.31;98257.72;8396235;28;20498;-69
2021/04/24 16:55:55;;;;;;;7.27;4.43;;;;;;;20.13;25.00;98260.34;8396540;28;20217;-69
2021/04/24 16:59:57;;;;;;;8.63;4.50;;;;;;;20.12;24.09;98267.38;8396145;28;20198;-69
2021/04/24 17:04:00;;;;;;;7.67;4.27;;;;;;;19.92;23.86;98269.78;8396426;28;20257;-69
2021/04/24 17:08:02;;;;;;;8.80;3.90;;;;;;;19.85;24.13;98265.13;8396938;28;20222;-69
2021/04/24 17:12:04;;;;;;;6.67;4.20;;;;;;;19.84;23.78;98260.84;8396923;28;20203;-68
2021/04/24 17:16:06;;;;;;;7.40;4.80;;;;;;;19.75;24.66;98264.19;8395154;28;20227;-68
2021/04/24 17:20:11;;;;;;;11.07;4.57;;;;;;;19.66;24.29;98271.75;8395239;28;20203;-68
2021/04/24 17:24:13;;;;;;;6.93;3.93;;;;;;;19.47;24.54;98271.50;8395350;28;20603;-68
2021/04/24 17:28:15;;;;;;;6.17;3.67;;;;;;;19.35;24.21;98275.91;8401433;28;20229;-69
2021/04/24 17:32:17;;;;;;;11.00;4.90;;;;;;;19.21;24.11;98266.44;8401571;28;20231;-68
2021/04/24 17:36:20;;;;;;;10.43;4.87;;;;;;;18.89;25.53;98271.44;8401623;28;20206;-68
2021/04/24 17:40:22;;;;;;;13.30;4.50;;;;;;;18.82;30.08;98270.22;8401913;28;20195;-65
2021/04/24 17:44:24;;;;;;;8.77;4.53;;;;;;;18.90;28.85;98267.88;8368915;28;20290;-64
2021/04/24 17:48:27;;;;;;;11.13;4.53;;;;;;;18.78;27.68;98269.56;8368379;28;20607;-65
2021/04/24 17:52:29;;;;;;;14.57;5.60;;;;;;;18.73;28.03;98272.53;8368346;28;20215;-65
2021/04/24 17:56:31;;;;;;;12.33;5.70;;;;;;;18.65;27.66;98269.63;8368987;28;20211;-66
2021/04/24 18:00:35;;;;;;;11.43;5.63;;;;;;;18.35;27.55;98272.66;8368616;28;20199;-65
2021/04/24 18:04:37;;;;;;;9.77;5.63;;;;;;;18.44;27.43;98271.19;8369107;28;20623;-65
2021/04/24 18:08:41;;;;;;;8.80;5.03;;;;;;;18.30;27.71;98282.66;8369417;28;20203;-66
2021/04/24 18:12:43;;;;;;;8.53;4.17;;;;;;;18.25;27.48;98280.34;8369875;28;20219;-66
2021/04/24 18:16:45;;;;;;;11.93;4.67;;;;;;;18.17;27.16;98280.06;8368362;28;20258;-68
2021/04/24 18:20:47;;;;;;;9.40;4.93;;;;;;;17.84;27.68;98277.97;8368352;28;20204;-69
2021/04/24 18:24:50;;;;;;;10.40;5.00;;;;;;;17.71;27.68;98278.00;8368289;28;20226;-69
2021/04/24 18:28:52;;;;;;;11.47;6.00;;;;;;;17.75;27.60;98282.06;8368999;28;20543;-69
2021/04/24 18:32:54;;;;;;;9.67;6.07;;;;;;;17.56;27.46;98282.50;8368276;28;20236;-68
2021/04/24 18:36:56;;;;;;;9.43;6.03;;;;;;;17.61;27.73;98288.25;8368307;28;20207;-68
2021/04/24 18:40:59;;;;;;;14.87;9.87;;;;;;;17.48;27.83;98300.50;8367427;28;20204;-69
2021/04/24 18:45:01;;;;;;;11.97;7.17;;;;;;;17.45;27.63;98296.28;8367533;28;20231;-68
2021/04/24 18:49:03;;;;;;;7.27;4.27;;;;;;;17.23;27.41;98304.75;8367574;28;20250;-68
2021/04/24 18:53:05;;;;;;;9.10;5.67;;;;;;;17.22;27.29;98302.25;8366976;28;20204;-68
2021/04/24 18:57:08;;;;;;;8.70;4.53;;;;;;;17.19;27.11;98298.03;8367207;28;20227;-68
2021/04/24 19:01:10;;;;;;;5.50;4.20;;;;;;;17.11;27.17;98301.16;8366630;28;20211;-68